sensor_id;sensor_type;location;lat;lon;timestamp;pressure;altitude;pressure_sealevel;temperature;humidity
31403;BME280;18039;52.188;21.024;2022-11-14T00:03:02;77878.31;;;-141.45;100.00
31403;BME280;18039;52.188;21.024;2022-11-14T00:05:48;77874.25;;;-141.45;100.00
31403;BME280;18039;52.188;21.024;2022-11-14T00:08:34;77870.22;;;-141.45;100.00
31403;BME280;18039;52.188;21.024;2022-11-14T00:11:20;77868.19;;;-141.45;100.00
31403;BME280;18039;52.188;21.024;2022-11-14T00:14:08;77870.22;;;-141.45;100.00
31403;BME280;18039;52.188;21.024;2022-11-14T00:16:54;77866.16;;;-141.45;100.00
31403;BME280;18039;52.188;21.024;2022-11-14T00:19:40;77866.16;;;-141.45;100.00
31403;BME280;18039;52.188;21.024;2022-11-14T00:22:25;77870.22;;;-141.45;100.00
31403;BME280;18039;52.188;21.024;2022-11-14T00:25:11;77870.22;;;-141.45;100.00
31403;BME280;18039;52.188;21.024;2022-11-14T00:27:57;77870.22;;;-141.45;100.00
31403;BME280;18039;52.188;21.024;2022-11-14T00:30:47;77874.25;;;-141.45;100.00
31403;BME280;18039;52.188;21.024;2022-11-14T00:33:33;77878.31;;;-141.45;100.00
31403;BME280;18039;52.188;21.024;2022-11-14T00:36:19;77874.25;;;-141.45;100.00
31403;BME280;18039;52.188;21.024;2022-11-14T00:39:04;77874.25;;;-141.45;100.00
31403;BME280;18039;52.188;21.024;2022-11-14T00:41:50;77876.28;;;-141.45;100.00
31403;BME280;18039;52.188;21.024;2022-11-14T00:44:36;77874.25;;;-141.45;100.00
31403;BME280;18039;52.188;21.024;2022-11-14T00:47:22;77874.25;;;-141.45;100.00
31403;BME280;18039;52.188;21.024;2022-11-14T00:50:09;77870.22;;;-141.45;100.00
31403;BME280;18039;52.188;21.024;2022-11-14T00:52:55;77870.22;;;-141.45;100.00
31403;BME280;18039;52.188;21.024;2022-11-14T00:55:41;77862.09;;;-141.45;100.00
31403;BME280;18039;52.188;21.024;2022-11-14T00:58:27;77853.97;;;-141.45;100.00
31403;BME280;18039;52.188;21.024;2022-11-14T01:01:13;77849.94;;;-141.45;100.00
31403;BME280;18039;52.188;21.024;2022-11-14T01:03:59;77849.94;;;-141.45;100.00
31403;BME280;18039;52.188;21.024;2022-11-14T01:06:44;77839.78;;;-141.45;100.00
31403;BME280;18039;52.188;21.024;2022-11-14T01:09:30;77837.75;;;-141.45;100.00
31403;BME280;18039;52.188;21.024;2022-11-14T01:12:16;77833.69;;;-141.45;100.00
31403;BME280;18039;52.188;21.024;2022-11-14T01:15:02;77841.81;;;-141.45;100.00
31403;BME280;18039;52.188;21.024;2022-11-14T01:17:47;77837.75;;;-141.45;100.00
31403;BME280;18039;52.188;21.024;2022-11-14T01:20:33;77837.75;;;-141.45;100.00
31403;BME280;18039;52.188;21.024;2022-11-14T01:23:19;77847.91;;;-141.45;100.00
31403;BME280;18039;52.188;21.024;2022-11-14T01:26:10;77841.81;;;-141.45;100.00
31403;BME280;18039;52.188;21.024;2022-11-14T01:28:56;77841.81;;;-141.45;100.00
31403;BME280;18039;52.188;21.024;2022-11-14T01:31:42;77845.88;;;-141.45;100.00
31403;BME280;18039;52.188;21.024;2022-11-14T01:34:27;77833.69;;;-141.45;100.00
31403;BME280;18039;52.188;21.024;2022-11-14T01:37:14;77849.94;;;-141.45;100.00
31403;BME280;18039;52.188;21.024;2022-11-14T01:39:59;77841.81;;;-141.45;100.00
31403;BME280;18039;52.188;21.024;2022-11-14T01:46:41;77833.69;;;-141.45;100.00
31403;BME280;18039;52.188;21.024;2022-11-14T01:49:35;77827.63;;;-141.45;100.00
31403;BME280;18039;52.188;21.024;2022-11-14T01:52:25;77825.59;;;-141.45;100.00
31403;BME280;18039;52.188;21.024;2022-11-14T01:55:12;77821.53;;;-141.45;100.00
31403;BME280;18039;52.188;21.024;2022-11-14T01:57:59;77817.47;;;-141.45;100.00
31403;BME280;18039;52.188;21.024;2022-11-14T02:00:45;77813.44;;;-141.45;100.00
31403;BME280;18039;52.188;21.024;2022-11-14T02:03:32;77813.44;;;-141.45;100.00
31403;BME280;18039;52.188;21.024;2022-11-14T02:06:23;77817.47;;;-141.45;100.00
31403;BME280;18039;52.188;21.024;2022-11-14T02:09:10;77825.59;;;-141.45;100.00
31403;BME280;18039;52.188;21.024;2022-11-14T02:11:57;77821.53;;;-141.45;100.00
31403;BME280;18039;52.188;21.024;2022-11-14T02:14:46;77809.38;;;-141.45;100.00
31403;BME280;18039;52.188;21.024;2022-11-14T02:17:33;77809.38;;;-141.45;100.00
31403;BME280;18039;52.188;21.024;2022-11-14T02:20:21;77817.47;;;-141.45;100.00
31403;BME280;18039;52.188;21.024;2022-11-14T02:23:09;77815.44;;;-141.45;100.00
31403;BME280;18039;52.188;21.024;2022-11-14T02:25:55;77803.28;;;-141.45;100.00
31403;BME280;18039;52.188;21.024;2022-11-14T02:28:41;77805.31;;;-141.45;100.00
31403;BME280;18039;52.188;21.024;2022-11-14T02:31:27;77805.31;;;-141.45;100.00
31403;BME280;18039;52.188;21.024;2022-11-14T02:34:12;77803.28;;;-141.45;100.00
31403;BME280;18039;52.188;21.024;2022-11-14T02:37:01;77799.22;;;-141.45;100.00
31403;BME280;18039;52.188;21.024;2022-11-14T02:39:47;77803.28;;;-141.45;100.00
31403;BME280;18039;52.188;21.024;2022-11-14T02:42:32;77805.31;;;-141.45;100.00
31403;BME280;18039;52.188;21.024;2022-11-14T02:45:18;77797.19;;;-141.45;100.00
31403;BME280;18039;52.188;21.024;2022-11-14T02:48:05;77803.28;;;-141.45;100.00
31403;BME280;18039;52.188;21.024;2022-11-14T02:50:51;77803.28;;;-141.45;100.00
31403;BME280;18039;52.188;21.024;2022-11-14T02:53:36;77809.38;;;-141.45;100.00
31403;BME280;18039;52.188;21.024;2022-11-14T02:56:22;77813.44;;;-141.45;100.00
31403;BME280;18039;52.188;21.024;2022-11-14T02:59:08;77805.31;;;-141.45;100.00
31403;BME280;18039;52.188;21.024;2022-11-14T03:01:54;77807.34;;;-141.45;100.00
31403;BME280;18039;52.188;21.024;2022-11-14T03:04:40;77805.31;;;-141.45;100.00
31403;BME280;18039;52.188;21.024;2022-11-14T03:07:26;77797.19;;;-141.45;100.00
31403;BME280;18039;52.188;21.024;2022-11-14T03:10:12;77805.31;;;-141.45;100.00
31403;BME280;18039;52.188;21.024;2022-11-14T03:12:58;77797.19;;;-141.45;100.00
31403;BME280;18039;52.188;21.024;2022-11-14T03:15:44;77797.19;;;-141.45;100.00
31403;BME280;18039;52.188;21.024;2022-11-14T03:18:30;77791.13;;;-141.45;100.00
31403;BME280;18039;52.188;21.024;2022-11-14T03:21:18;77785.03;;;-141.45;100.00
31403;BME280;18039;52.188;21.024;2022-11-14T03:24:05;77780.97;;;-141.45;100.00
31403;BME280;18039;52.188;21.024;2022-11-14T03:26:51;77772.88;;;-141.45;100.00
31403;BME280;18039;52.188;21.024;2022-11-14T03:29:37;77776.94;;;-141.45;100.00
31403;BME280;18039;52.188;21.024;2022-11-14T03:32:22;77780.97;;;-141.45;100.00
31403;BME280;18039;52.188;21.024;2022-11-14T03:35:09;77778.94;;;-141.45;100.00
31403;BME280;18039;52.188;21.024;2022-11-14T03:37:55;77780.97;;;-141.45;100.00
31403;BME280;18039;52.188;21.024;2022-11-14T03:40:43;77783.00;;;-141.45;100.00
31403;BME280;18039;52.188;21.024;2022-11-14T03:43:31;77783.00;;;-141.45;100.00
31403;BME280;18039;52.188;21.024;2022-11-14T03:46:18;77776.94;;;-141.45;100.00
31403;BME280;18039;52.188;21.024;2022-11-14T03:49:03;77776.94;;;-141.45;100.00
31403;BME280;18039;52.188;21.024;2022-11-14T03:51:50;77778.94;;;-141.45;100.00
31403;BME280;18039;52.188;21.024;2022-11-14T03:54:37;77768.81;;;-141.45;100.00
31403;BME280;18039;52.188;21.024;2022-11-14T03:57:26;77772.88;;;-141.45;100.00
31403;BME280;18039;52.188;21.024;2022-11-14T04:00:12;77768.81;;;-141.45;100.00
31403;BME280;18039;52.188;21.024;2022-11-14T04:02:59;77768.81;;;-141.45;100.00
31403;BME280;18039;52.188;21.024;2022-11-14T04:05:45;77768.81;;;-141.45;100.00
31403;BME280;18039;52.188;21.024;2022-11-14T04:08:31;77760.69;;;-141.45;100.00
31403;BME280;18039;52.188;21.024;2022-11-14T04:11:18;77758.69;;;-141.45;100.00
31403;BME280;18039;52.188;21.024;2022-11-14T04:14:04;77752.59;;;-141.45;100.00
31403;BME280;18039;52.188;21.024;2022-11-14T04:16:51;77760.69;;;-141.45;100.00
31403;BME280;18039;52.188;21.024;2022-11-14T04:19:37;77752.59;;;-141.45;100.00
31403;BME280;18039;52.188;21.024;2022-11-14T04:22:22;77754.63;;;-141.45;100.00
31403;BME280;18039;52.188;21.024;2022-11-14T04:25:08;77752.59;;;-141.45;100.00
31403;BME280;18039;52.188;21.024;2022-11-14T04:27:56;77756.66;;;-141.45;100.00
31403;BME280;18039;52.188;21.024;2022-11-14T04:30:43;77758.69;;;-141.45;100.00
31403;BME280;18039;52.188;21.024;2022-11-14T04:33:32;77772.88;;;-141.45;100.00
31403;BME280;18039;52.188;21.024;2022-11-14T04:36:18;77772.88;;;-141.45;100.00
31403;BME280;18039;52.188;21.024;2022-11-14T04:39:04;77776.94;;;-141.45;100.00
31403;BME280;18039;52.188;21.024;2022-11-14T04:41:49;77787.06;;;-141.45;100.00
31403;BME280;18039;52.188;21.024;2022-11-14T04:44:36;77785.03;;;-141.45;100.00
31403;BME280;18039;52.188;21.024;2022-11-14T04:47:21;77780.97;;;-141.45;100.00
31403;BME280;18039;52.188;21.024;2022-11-14T04:50:08;77785.03;;;-141.45;100.00
31403;BME280;18039;52.188;21.024;2022-11-14T04:52:54;77785.03;;;-141.45;100.00
31403;BME280;18039;52.188;21.024;2022-11-14T04:55:39;77785.03;;;-141.45;100.00
31403;BME280;18039;52.188;21.024;2022-11-14T04:58:25;77789.09;;;-141.45;100.00
31403;BME280;18039;52.188;21.024;2022-11-14T05:01:12;77783.00;;;-141.45;100.00
31403;BME280;18039;52.188;21.024;2022-11-14T05:03:59;77785.03;;;-141.45;100.00
31403;BME280;18039;52.188;21.024;2022-11-14T05:06:44;77785.03;;;-141.45;100.00
31403;BME280;18039;52.188;21.024;2022-11-14T05:09:30;77787.06;;;-141.45;100.00
31403;BME280;18039;52.188;21.024;2022-11-14T05:12:15;77785.03;;;-141.45;100.00
31403;BME280;18039;52.188;21.024;2022-11-14T05:15:01;77778.94;;;-141.45;100.00
31403;BME280;18039;52.188;21.024;2022-11-14T05:17:47;77785.03;;;-141.45;100.00
31403;BME280;18039;52.188;21.024;2022-11-14T05:20:33;77789.09;;;-141.45;100.00
31403;BME280;18039;52.188;21.024;2022-11-14T05:23:20;77791.13;;;-141.45;100.00
31403;BME280;18039;52.188;21.024;2022-11-14T05:26:10;77791.13;;;-141.45;100.00
31403;BME280;18039;52.188;21.024;2022-11-14T05:28:56;77789.09;;;-141.45;100.00
31403;BME280;18039;52.188;21.024;2022-11-14T05:31:42;77780.97;;;-141.45;100.00
31403;BME280;18039;52.188;21.024;2022-11-14T05:34:27;77787.06;;;-141.45;100.00
31403;BME280;18039;52.188;21.024;2022-11-14T05:37:13;77787.06;;;-141.45;100.00
31403;BME280;18039;52.188;21.024;2022-11-14T05:39:58;77789.09;;;-141.45;100.00
31403;BME280;18039;52.188;21.024;2022-11-14T05:42:44;77789.09;;;-141.45;100.00
31403;BME280;18039;52.188;21.024;2022-11-14T05:45:29;77793.16;;;-141.45;100.00
31403;BME280;18039;52.188;21.024;2022-11-14T05:48:16;77789.09;;;-141.45;100.00
31403;BME280;18039;52.188;21.024;2022-11-14T05:51:03;77797.19;;;-141.45;100.00
31403;BME280;18039;52.188;21.024;2022-11-14T05:53:49;77793.16;;;-141.45;100.00
31403;BME280;18039;52.188;21.024;2022-11-14T05:56:35;77793.16;;;-141.45;100.00
31403;BME280;18039;52.188;21.024;2022-11-14T05:59:21;77793.16;;;-141.45;100.00
31403;BME280;18039;52.188;21.024;2022-11-14T06:02:07;77797.19;;;-141.45;100.00
31403;BME280;18039;52.188;21.024;2022-11-14T06:04:53;77801.25;;;-141.45;100.00
31403;BME280;18039;52.188;21.024;2022-11-14T06:07:38;77793.16;;;-141.45;100.00
31403;BME280;18039;52.188;21.024;2022-11-14T06:10:25;77797.19;;;-141.45;100.00
31403;BME280;18039;52.188;21.024;2022-11-14T06:13:11;77801.25;;;-141.45;100.00
31403;BME280;18039;52.188;21.024;2022-11-14T06:16:02;77797.19;;;-141.45;100.00
31403;BME280;18039;52.188;21.024;2022-11-14T06:18:51;77785.03;;;-141.45;100.00
31403;BME280;18039;52.188;21.024;2022-11-14T06:21:37;77793.16;;;-141.45;100.00
31403;BME280;18039;52.188;21.024;2022-11-14T06:24:23;77789.09;;;-141.45;100.00
31403;BME280;18039;52.188;21.024;2022-11-14T06:27:09;77785.03;;;-141.45;100.00
31403;BME280;18039;52.188;21.024;2022-11-14T06:29:55;77780.97;;;-141.45;100.00
31403;BME280;18039;52.188;21.024;2022-11-14T06:32:42;77780.97;;;-141.45;100.00
31403;BME280;18039;52.188;21.024;2022-11-14T06:35:27;77780.97;;;-141.45;100.00
31403;BME280;18039;52.188;21.024;2022-11-14T06:38:14;77776.94;;;-141.45;100.00
31403;BME280;18039;52.188;21.024;2022-11-14T06:41:05;77780.97;;;-141.45;100.00
31403;BME280;18039;52.188;21.024;2022-11-14T06:43:53;77780.97;;;-141.45;100.00
31403;BME280;18039;52.188;21.024;2022-11-14T06:46:39;77785.03;;;-141.45;100.00
31403;BME280;18039;52.188;21.024;2022-11-14T06:49:25;77785.03;;;-141.45;100.00
31403;BME280;18039;52.188;21.024;2022-11-14T06:52:12;77789.09;;;-141.45;100.00
31403;BME280;18039;52.188;21.024;2022-11-14T06:54:58;77789.09;;;-141.45;100.00
31403;BME280;18039;52.188;21.024;2022-11-14T06:57:44;77793.16;;;-141.45;100.00
31403;BME280;18039;52.188;21.024;2022-11-14T07:00:30;77785.03;;;-141.45;100.00
31403;BME280;18039;52.188;21.024;2022-11-14T07:03:16;77780.97;;;-141.45;100.00
31403;BME280;18039;52.188;21.024;2022-11-14T07:06:03;77785.03;;;-141.45;100.00
31403;BME280;18039;52.188;21.024;2022-11-14T07:08:50;77776.94;;;-141.45;100.00
31403;BME280;18039;52.188;21.024;2022-11-14T07:11:36;77776.94;;;-141.45;100.00
31403;BME280;18039;52.188;21.024;2022-11-14T07:14:22;77768.81;;;-141.45;100.00
31403;BME280;18039;52.188;21.024;2022-11-14T07:17:08;77766.78;;;-141.45;100.00
31403;BME280;18039;52.188;21.024;2022-11-14T07:19:54;77764.75;;;-141.45;100.00
31403;BME280;18039;52.188;21.024;2022-11-14T07:22:40;77758.69;;;-141.45;100.00
31403;BME280;18039;52.188;21.024;2022-11-14T07:25:26;77756.66;;;-141.45;100.00
31403;BME280;18039;52.188;21.024;2022-11-14T07:28:12;77752.59;;;-141.45;100.00
31403;BME280;18039;52.188;21.024;2022-11-14T07:30:58;77752.59;;;-141.45;100.00
31403;BME280;18039;52.188;21.024;2022-11-14T07:33:45;77746.50;;;-141.45;100.00
31403;BME280;18039;52.188;21.024;2022-11-14T07:36:32;77760.69;;;-141.45;100.00
31403;BME280;18039;52.188;21.024;2022-11-14T07:39:18;77740.44;;;-141.45;99.80
31403;BME280;18039;52.188;21.024;2022-11-14T07:42:04;77740.44;;;-141.45;99.64
31403;BME280;18039;52.188;21.024;2022-11-14T07:44:50;77744.47;;;-141.45;98.92
31403;BME280;18039;52.188;21.024;2022-11-14T07:47:35;77740.44;;;-141.45;98.63
31403;BME280;18039;52.188;21.024;2022-11-14T07:50:22;77740.44;;;-141.45;98.66
31403;BME280;18039;52.188;21.024;2022-11-14T07:53:07;77736.38;;;-141.45;98.88
31403;BME280;18039;52.188;21.024;2022-11-14T07:55:54;77732.31;;;-141.45;98.88
31403;BME280;18039;52.188;21.024;2022-11-14T07:58:41;77736.38;;;-141.45;98.00
31403;BME280;18039;52.188;21.024;2022-11-14T08:01:27;77734.34;;;-141.45;98.27
31403;BME280;18039;52.188;21.024;2022-11-14T08:04:14;77732.31;;;-141.45;98.27
31403;BME280;18039;52.188;21.024;2022-11-14T08:07:01;77732.31;;;-141.45;98.30
31403;BME280;18039;52.188;21.024;2022-11-14T08:09:48;77720.16;;;-141.45;98.44
31403;BME280;18039;52.188;21.024;2022-11-14T08:12:34;77752.59;;;-141.45;98.26
31403;BME280;18039;52.188;21.024;2022-11-14T08:15:22;77744.47;;;-141.45;98.80
31403;BME280;18039;52.188;21.024;2022-11-14T08:18:09;77738.41;;;-141.45;98.92
31403;BME280;18039;52.188;21.024;2022-11-14T08:20:54;77734.34;;;-141.45;98.54
31403;BME280;18039;52.188;21.024;2022-11-14T08:23:41;77724.19;;;-141.45;98.71
31403;BME280;18039;52.188;21.024;2022-11-14T08:26:29;77718.13;;;-141.45;98.51
31403;BME280;18039;52.188;21.024;2022-11-14T08:29:19;77707.97;;;-141.45;98.63
31403;BME280;18039;52.188;21.024;2022-11-14T08:32:05;77716.09;;;-141.45;98.34
31403;BME280;18039;52.188;21.024;2022-11-14T08:34:51;77714.06;;;-141.45;98.79
31403;BME280;18039;52.188;21.024;2022-11-14T08:37:37;77707.97;;;-141.45;99.35
31403;BME280;18039;52.188;21.024;2022-11-14T08:40:23;77703.94;;;-141.45;99.17
31403;BME280;18039;52.188;21.024;2022-11-14T08:43:09;77691.75;;;-141.45;98.03
31403;BME280;18039;52.188;21.024;2022-11-14T08:45:57;77683.66;;;-141.45;96.75
31403;BME280;18039;52.188;21.024;2022-11-14T08:48:46;77687.69;;;-141.45;96.30
31403;BME280;18039;52.188;21.024;2022-11-14T08:51:32;77691.75;;;-141.45;95.99
31403;BME280;18039;52.188;21.024;2022-11-14T08:54:20;77699.88;;;-141.45;96.13
31403;BME280;18039;52.188;21.024;2022-11-14T08:57:06;77679.59;;;-141.45;96.64
31403;BME280;18039;52.188;21.024;2022-11-14T08:59:52;77675.53;;;-141.45;96.12
31403;BME280;18039;52.188;21.024;2022-11-14T09:02:40;77661.34;;;-141.45;96.41
31403;BME280;18039;52.188;21.024;2022-11-14T09:05:25;77671.47;;;-141.45;96.04
31403;BME280;18039;52.188;21.024;2022-11-14T09:08:12;77667.44;;;-141.45;95.25
31403;BME280;18039;52.188;21.024;2022-11-14T09:11:02;77667.44;;;-141.45;94.59
31403;BME280;18039;52.188;21.024;2022-11-14T09:13:50;77665.41;;;-141.45;94.30
31403;BME280;18039;52.188;21.024;2022-11-14T09:16:36;77679.59;;;-141.45;94.96
31403;BME280;18039;52.188;21.024;2022-11-14T09:19:22;77671.47;;;-141.45;95.12
31403;BME280;18039;52.188;21.024;2022-11-14T09:22:07;77671.47;;;-141.45;95.03
31403;BME280;18039;52.188;21.024;2022-11-14T09:24:54;77667.44;;;-141.45;94.89
31403;BME280;18039;52.188;21.024;2022-11-14T09:27:39;77665.41;;;-141.45;95.02
31403;BME280;18039;52.188;21.024;2022-11-14T09:30:25;77663.38;;;-141.45;94.58
31403;BME280;18039;52.188;21.024;2022-11-14T09:33:10;77667.44;;;-141.45;93.79
31403;BME280;18039;52.188;21.024;2022-11-14T09:35:58;77663.38;;;-141.45;94.74
31403;BME280;18039;52.188;21.024;2022-11-14T09:38:44;77667.44;;;-141.45;94.66
31403;BME280;18039;52.188;21.024;2022-11-14T09:44:46;77663.38;;;-141.45;95.39
31403;BME280;18039;52.188;21.024;2022-11-14T09:47:47;77659.31;;;-141.45;95.01
31403;BME280;18039;52.188;21.024;2022-11-14T09:50:39;77643.09;;;-141.45;95.09
31403;BME280;18039;52.188;21.024;2022-11-14T09:56:58;77622.81;;;-141.45;93.96
31403;BME280;18039;52.188;21.024;2022-11-14T09:59:45;77634.97;;;-141.45;93.05
31403;BME280;18039;52.188;21.024;2022-11-14T10:05:38;77630.94;;;-141.45;93.08
31403;BME280;18039;52.188;21.024;2022-11-14T10:11:35;77630.94;;;-141.45;92.67
31403;BME280;18039;52.188;21.024;2022-11-14T10:27:34;77626.88;;;-141.45;93.21
31403;BME280;18039;52.188;21.024;2022-11-14T10:30:29;77624.84;;;-141.45;93.25
31403;BME280;18039;52.188;21.024;2022-11-14T10:39:54;77624.84;;;-141.45;93.12
31403;BME280;18039;52.188;21.024;2022-11-14T10:42:45;77622.81;;;-141.45;92.70
31403;BME280;18039;52.188;21.024;2022-11-14T10:45:41;77626.88;;;-141.45;92.47
31403;BME280;18039;52.188;21.024;2022-11-14T10:48:44;77618.75;;;-141.45;92.89
31403;BME280;18039;52.188;21.024;2022-11-14T10:51:34;77610.66;;;-141.45;92.56
31403;BME280;18039;52.188;21.024;2022-11-14T10:54:45;77602.53;;;-141.45;92.63
31403;BME280;18039;52.188;21.024;2022-11-14T10:57:31;77606.59;;;-141.45;91.61
31403;BME280;18039;52.188;21.024;2022-11-14T11:00:19;77600.50;;;-141.45;91.70
31403;BME280;18039;52.188;21.024;2022-11-14T11:03:07;77590.38;;;-141.45;91.84
31403;BME280;18039;52.188;21.024;2022-11-14T11:05:53;77592.41;;;-141.45;91.55
31403;BME280;18039;52.188;21.024;2022-11-14T11:08:42;77578.22;;;-141.45;92.03
31403;BME280;18039;52.188;21.024;2022-11-14T11:11:56;77586.31;;;-141.45;91.04
31403;BME280;18039;52.188;21.024;2022-11-14T11:14:43;77586.31;;;-141.45;91.15
31403;BME280;18039;52.188;21.024;2022-11-14T11:17:29;77570.09;;;-141.45;91.11
31403;BME280;18039;52.188;21.024;2022-11-14T11:26:19;77561.97;;;-141.45;91.06
31403;BME280;18039;52.188;21.024;2022-11-14T11:31:57;77586.31;;;-141.45;91.42
31403;BME280;18039;52.188;21.024;2022-11-14T11:34:44;77574.16;;;-141.45;91.09
31403;BME280;18039;52.188;21.024;2022-11-14T11:37:32;77578.22;;;-141.45;90.92
31403;BME280;18039;52.188;21.024;2022-11-14T11:40:25;77590.38;;;-141.45;91.71
31403;BME280;18039;52.188;21.024;2022-11-14T11:46:44;77578.22;;;-141.45;91.08
31403;BME280;18039;52.188;21.024;2022-11-14T11:49:49;77582.25;;;-141.45;91.53
31403;BME280;18039;52.188;21.024;2022-11-14T11:55:47;77566.03;;;-141.45;91.31
31403;BME280;18039;52.188;21.024;2022-11-14T11:58:50;77553.88;;;-141.45;90.79
31403;BME280;18039;52.188;21.024;2022-11-14T12:01:38;77545.75;;;-141.45;91.18
31403;BME280;18039;52.188;21.024;2022-11-14T12:04:24;77561.97;;;-141.45;90.93
31403;BME280;18039;52.188;21.024;2022-11-14T12:07:16;77586.31;;;-141.45;91.82
31403;BME280;18039;52.188;21.024;2022-11-14T12:10:15;77582.25;;;-141.45;92.71
31403;BME280;18039;52.188;21.024;2022-11-14T12:19:40;77570.09;;;-141.45;92.69
31403;BME280;18039;52.188;21.024;2022-11-14T12:32:04;77561.97;;;-141.45;91.43
31403;BME280;18039;52.188;21.024;2022-11-14T12:34:54;77559.97;;;-141.45;90.58
31403;BME280;18039;52.188;21.024;2022-11-14T12:37:45;77574.16;;;-141.45;90.74
31403;BME280;18039;52.188;21.024;2022-11-14T12:40:47;77566.03;;;-141.45;89.70
31403;BME280;18039;52.188;21.024;2022-11-14T12:43:40;77574.16;;;-141.45;90.03
31403;BME280;18039;52.188;21.024;2022-11-14T12:49:59;77606.59;;;-141.45;90.20
31403;BME280;18039;52.188;21.024;2022-11-14T12:52:50;77612.69;;;-141.45;90.37
31403;BME280;18039;52.188;21.024;2022-11-14T12:59:03;77620.78;;;-141.45;91.54
31403;BME280;18039;52.188;21.024;2022-11-14T13:14:52;77596.44;;;-141.45;91.74
31403;BME280;18039;52.188;21.024;2022-11-14T13:18:14;77622.81;;;-141.45;91.21
31403;BME280;18039;52.188;21.024;2022-11-14T13:21:30;77606.59;;;-141.45;90.86
31403;BME280;18039;52.188;21.024;2022-11-14T13:27:45;77618.75;;;-141.45;92.10
31403;BME280;18039;52.188;21.024;2022-11-14T13:33:59;77618.75;;;-141.45;91.36
31403;BME280;18039;52.188;21.024;2022-11-14T13:42:53;77606.59;;;-141.45;91.43
31403;BME280;18039;52.188;21.024;2022-11-14T13:49:31;77598.47;;;-141.45;91.08
31403;BME280;18039;52.188;21.024;2022-11-14T13:52:25;77588.34;;;-141.45;90.92
31403;BME280;18039;52.188;21.024;2022-11-14T13:55:21;77584.28;;;-141.45;90.46
31403;BME280;18039;52.188;21.024;2022-11-14T14:04:26;77592.41;;;-141.45;90.52
31403;BME280;18039;52.188;21.024;2022-11-14T14:07:29;77590.38;;;-141.45;90.78
31403;BME280;18039;52.188;21.024;2022-11-14T14:13:36;77606.59;;;-141.45;91.86
31403;BME280;18039;52.188;21.024;2022-11-14T14:16:57;77612.69;;;-141.45;91.04
31403;BME280;18039;52.188;21.024;2022-11-14T14:32:11;77616.72;;;-141.45;92.61
31403;BME280;18039;52.188;21.024;2022-11-14T14:34:58;77618.75;;;-141.45;92.06
31403;BME280;18039;52.188;21.024;2022-11-14T14:37:50;77614.69;;;-141.45;92.34
31403;BME280;18039;52.188;21.024;2022-11-14T14:40:38;77602.53;;;-141.45;92.45
31403;BME280;18039;52.188;21.024;2022-11-14T14:43:32;77614.69;;;-141.45;91.46
31403;BME280;18039;52.188;21.024;2022-11-14T14:46:30;77598.47;;;-141.45;90.58
31403;BME280;18039;52.188;21.024;2022-11-14T14:49:31;77602.53;;;-141.45;90.91
31403;BME280;18039;52.188;21.024;2022-11-14T14:52:29;77602.53;;;-141.45;90.67
31403;BME280;18039;52.188;21.024;2022-11-14T14:55:28;77610.66;;;-141.45;90.81
31403;BME280;18039;52.188;21.024;2022-11-14T15:01:13;77598.47;;;-141.45;90.15
31403;BME280;18039;52.188;21.024;2022-11-14T15:04:07;77606.59;;;-141.45;89.06
31403;BME280;18039;52.188;21.024;2022-11-14T15:06:58;77626.88;;;-141.45;89.30
31403;BME280;18039;52.188;21.024;2022-11-14T15:09:52;77630.94;;;-141.45;89.44
31403;BME280;18039;52.188;21.024;2022-11-14T15:12:40;77622.81;;;-141.45;89.24
31403;BME280;18039;52.188;21.024;2022-11-14T15:15:27;77643.09;;;-141.45;89.54
31403;BME280;18039;52.188;21.024;2022-11-14T15:18:22;77634.97;;;-141.45;90.30
31403;BME280;18039;52.188;21.024;2022-11-14T15:21:15;77634.97;;;-141.45;90.52
31403;BME280;18039;52.188;21.024;2022-11-14T15:24:17;77630.94;;;-141.45;90.05
31403;BME280;18039;52.188;21.024;2022-11-14T15:27:17;77624.84;;;-141.45;89.79
31403;BME280;18039;52.188;21.024;2022-11-14T15:30:06;77614.69;;;-141.45;89.06
31403;BME280;18039;52.188;21.024;2022-11-14T15:33:27;77616.72;;;-141.45;88.75
31403;BME280;18039;52.188;21.024;2022-11-14T15:36:15;77618.75;;;-141.45;88.71
31403;BME280;18039;52.188;21.024;2022-11-14T15:39:21;77610.66;;;-141.45;88.80
31403;BME280;18039;52.188;21.024;2022-11-14T15:42:15;77610.66;;;-141.45;88.14
31403;BME280;18039;52.188;21.024;2022-11-14T15:45:25;77598.47;;;-141.45;88.50
31403;BME280;18039;52.188;21.024;2022-11-14T15:48:17;77596.44;;;-141.45;88.58
31403;BME280;18039;52.188;21.024;2022-11-14T15:51:03;77596.44;;;-141.45;88.09
31403;BME280;18039;52.188;21.024;2022-11-14T15:53:50;77594.44;;;-141.45;88.12
31403;BME280;18039;52.188;21.024;2022-11-14T15:56:37;77594.44;;;-141.45;88.00
31403;BME280;18039;52.188;21.024;2022-11-14T15:59:25;77590.38;;;-141.45;87.94
31403;BME280;18039;52.188;21.024;2022-11-14T16:02:15;77588.34;;;-141.45;88.04
31403;BME280;18039;52.188;21.024;2022-11-14T16:05:03;77590.38;;;-141.45;88.44
31403;BME280;18039;52.188;21.024;2022-11-14T16:07:49;77586.31;;;-141.45;88.58
31403;BME280;18039;52.188;21.024;2022-11-14T16:10:35;77594.44;;;-141.45;87.98
31403;BME280;18039;52.188;21.024;2022-11-14T16:13:22;77588.34;;;-141.45;87.52
31403;BME280;18039;52.188;21.024;2022-11-14T16:16:08;77590.38;;;-141.45;87.78
31403;BME280;18039;52.188;21.024;2022-11-14T16:18:53;77594.44;;;-141.45;88.31
31403;BME280;18039;52.188;21.024;2022-11-14T16:21:39;77590.38;;;-141.45;88.25
31403;BME280;18039;52.188;21.024;2022-11-14T16:24:25;77594.44;;;-141.45;88.36